Time;durP1;ratioP1;P1;durP2;ratioP2;P2;SDS_P1;SDS_P2;PMS_P1;PMS_P2;Temp;Humidity;BMP_temperature;BMP_pressure;BME280_temperature;BME280_humidity;BME280_pressure;Samples;Min_cycle;Max_cycle;Signal;HPM_P1;HPM_P2
2021/04/13 00:01:12;;;;;;;11.20;7.40;;;0.60;99.90;;;;;;4999562;28;20645;-78
2021/04/13 00:03:44;;;;;;;11.97;6.77;;;0.50;99.90;;;;;;4999222;28;20422;-79
2021/04/13 00:06:30;;;;;;;7.90;5.13;;;0.60;99.90;;;;;;5000164;28;20450;-79
2021/04/13 00:09:05;;;;;;;9.37;6.07;;;0.60;99.90;;;;;;5000783;28;20845;-79
2021/04/13 00:11:31;;;;;;;9.90;6.40;;;0.60;99.90;;;;;;4999948;28;20478;-79
2021/04/13 00:13:59;;;;;;;8.03;6.00;;;0.50;99.90;;;;;;4999737;28;20481;-79
2021/04/13 00:16:33;;;;;;;8.63;5.87;;;0.50;99.90;;;;;;5000425;28;20171;-79
2021/04/13 00:18:59;;;;;;;8.43;6.33;;;0.60;99.90;;;;;;4999303;28;20422;-79
2021/04/13 00:21:32;;;;;;;8.30;6.17;;;0.50;99.90;;;;;;5000350;28;20426;-79
2021/04/13 00:24:02;;;;;;;8.57;6.30;;;0.50;99.90;;;;;;5000329;28;20205;-79
2021/04/13 00:26:30;;;;;;;8.80;6.73;;;0.60;99.90;;;;;;4999215;28;20527;-79
2021/04/13 00:29:00;;;;;;;8.60;6.53;;;0.50;99.90;;;;;;5001227;28;20916;-79
2021/04/13 00:31:41;;;;;;;8.10;6.00;;;0.40;99.90;;;;;;4999421;28;20410;-79
2021/04/13 00:34:23;;;;;;;7.23;5.17;;;0.40;99.90;;;;;;5000170;28;20479;-79
2021/04/13 00:36:51;;;;;;;8.37;5.73;;;0.40;99.90;;;;;;5000814;28;20419;-78
2021/04/13 00:39:27;;;;;;;7.80;6.23;;;0.40;99.90;;;;;;5000375;28;20776;-78
2021/04/13 00:41:59;;;;;;;9.03;6.20;;;0.50;99.90;;;;;;5000317;28;20896;-79
2021/04/13 00:44:26;;;;;;;8.33;6.10;;;0.60;99.90;;;;;;4998704;28;20481;-78
2021/04/13 00:47:15;;;;;;;9.47;6.03;;;0.70;99.90;;;;;;4999033;28;20466;-79
2021/04/13 00:49:48;;;;;;;7.63;5.80;;;0.60;99.90;;;;;;5000337;28;20410;-79
2021/04/13 00:52:19;;;;;;;8.60;6.20;;;0.70;99.90;;;;;;5000289;28;20403;-79
2021/04/13 00:54:54;;;;;;;8.63;6.53;;;0.60;99.90;;;;;;5000410;28;20406;-79
2021/04/13 00:57:38;;;;;;;9.60;6.40;;;0.60;99.90;;;;;;4999778;28;20540;-79
2021/04/13 01:00:06;;;;;;;6.87;5.77;;;0.60;99.90;;;;;;5000089;28;20425;-79
2021/04/13 01:02:34;;;;;;;8.30;6.27;;;0.50;99.90;;;;;;4998074;28;20414;-79
2021/04/13 01:05:18;;;;;;;8.40;6.70;;;0.60;99.90;;;;;;4999354;28;20486;-79
2021/04/13 01:07:49;;;;;;;8.40;6.17;;;0.50;99.90;;;;;;5000447;28;20427;-79
2021/04/13 01:10:21;;;;;;;9.37;7.07;;;0.40;99.90;;;;;;4998735;28;20410;-79
2021/04/13 01:13:11;;;;;;;9.67;7.53;;;0.40;99.90;;;;;;5000293;28;20406;-79
2021/04/13 01:15:43;;;;;;;9.27;6.50;;;0.40;99.90;;;;;;4998404;28;20415;-79
2021/04/13 01:18:13;;;;;;;9.67;6.90;;;0.50;99.90;;;;;;4998638;28;20442;-79
2021/04/13 01:21:04;;;;;;;11.73;7.50;;;0.50;99.90;;;;;;4999698;28;20399;-78
2021/04/13 01:23:39;;;;;;;9.13;7.10;;;0.50;99.90;;;;;;4999633;28;20425;-79
2021/04/13 01:26:06;;;;;;;10.60;6.37;;;0.60;99.90;;;;;;4998232;28;20465;-79
2021/04/13 01:28:36;;;;;;;10.77;6.57;;;0.50;99.90;;;;;;4999826;28;20795;-79
2021/04/13 01:31:08;;;;;;;10.73;7.17;;;0.50;99.90;;;;;;4998711;28;20442;-79
2021/04/13 01:33:49;;;;;;;11.90;8.13;;;0.50;99.90;;;;;;4999387;28;20403;-79
2021/04/13 01:36:29;;;;;;;9.57;6.80;;;0.50;99.90;;;;;;4998468;28;20889;-79
2021/04/13 01:39:13;;;;;;;11.27;6.83;;;0.50;99.90;;;;;;4998303;28;20446;-79
2021/04/13 01:41:46;;;;;;;12.13;7.83;;;0.50;99.90;;;;;;5000355;28;20391;-79
2021/04/13 01:44:13;;;;;;;11.90;7.50;;;0.40;99.90;;;;;;4999919;28;20411;-78
2021/04/13 01:46:41;;;;;;;14.90;8.93;;;0.40;99.90;;;;;;4999991;28;20454;-79
2021/04/13 01:49:06;;;;;;;12.60;8.40;;;0.50;99.90;;;;;;4998219;28;20439;-79
2021/04/13 01:51:34;;;;;;;12.73;8.03;;;0.50;99.90;;;;;;4998008;28;20773;-79
2021/04/13 01:54:01;;;;;;;11.93;8.63;;;0.40;99.90;;;;;;4997943;28;20172;-78
2021/04/13 01:56:48;;;;;;;10.43;8.27;;;0.40;99.90;;;;;;4997732;28;20454;-79
2021/04/13 01:59:22;;;;;;;10.70;7.90;;;0.40;99.90;;;;;;4999203;28;20426;-78
2021/04/13 02:01:57;;;;;;;12.47;8.07;;;0.40;99.90;;;;;;4999706;28;20406;-79
2021/04/13 02:04:31;;;;;;;12.50;9.37;;;0.40;99.90;;;;;;4998699;28;20433;-79
2021/04/13 02:07:00;;;;;;;12.13;8.90;;;0.40;99.90;;;;;;4999326;28;20465;-78
2021/04/13 02:12:27;;;;;;;13.73;7.63;;;0.40;99.90;;;;;;4987007;28;20419;-79
2021/04/13 02:15:01;;;;;;;10.63;8.40;;;0.30;99.90;;;;;;4998992;28;20434;-79
2021/04/13 02:17:32;;;;;;;9.10;7.07;;;0.20;99.90;;;;;;4999673;28;20434;-79
2021/04/13 02:19:59;;;;;;;10.37;7.43;;;0.10;99.90;;;;;;4998436;28;20485;-79
2021/04/13 02:22:27;;;;;;;9.83;7.20;;;0.10;99.90;;;;;;4998553;28;20469;-79
2021/04/13 02:24:59;;;;;;;11.93;7.50;;;0.00;99.90;;;;;;4999481;28;20410;-79
2021/04/13 02:27:27;;;;;;;11.33;8.30;;;0.00;99.90;;;;;;4998495;28;20488;-79
2021/04/13 02:30:02;;;;;;;11.53;7.90;;;0.10;99.90;;;;;;4997934;28;20433;-79
2021/04/13 02:32:31;;;;;;;11.03;8.00;;;0.10;99.90;;;;;;4998837;28;20904;-79
2021/04/13 02:35:01;;;;;;;12.03;8.03;;;0.20;99.90;;;;;;5004792;28;20789;-79
2021/04/13 02:37:32;;;;;;;11.00;8.50;;;0.20;99.90;;;;;;5001984;28;20438;-79
2021/04/13 02:40:17;;;;;;;10.57;7.90;;;0.30;99.90;;;;;;4998136;28;20415;-79
2021/04/13 02:42:45;;;;;;;9.83;7.57;;;0.20;99.90;;;;;;4997394;28;20410;-79
2021/04/13 02:45:22;;;;;;;9.07;7.27;;;0.20;99.90;;;;;;4996378;28;20414;-79
2021/04/13 02:47:52;;;;;;;10.83;7.83;;;0.20;99.90;;;;;;4997001;28;20519;-79
2021/04/13 02:50:20;;;;;;;14.60;8.93;;;0.20;99.90;;;;;;4998441;28;20391;-78
2021/04/13 02:52:50;;;;;;;10.73;8.17;;;0.20;99.90;;;;;;4997462;28;20426;-79
2021/04/13 02:55:38;;;;;;;12.13;8.43;;;0.20;99.90;;;;;;4996588;28;20419;-79
2021/04/13 02:58:09;;;;;;;12.40;8.40;;;0.20;99.90;;;;;;4998174;28;20487;-79
2021/04/13 03:00:41;;;;;;;11.93;8.57;;;0.30;99.90;;;;;;4996956;28;20493;-79
2021/04/13 03:03:10;;;;;;;11.80;8.73;;;0.20;99.90;;;;;;4997108;28;20506;-79
2021/04/13 03:05:38;;;;;;;12.33;8.67;;;0.20;99.90;;;;;;4997745;28;20978;-78
2021/04/13 03:08:14;;;;;;;14.03;8.50;;;0.30;99.90;;;;;;4998271;28;20460;-79
2021/04/13 03:10:43;;;;;;;10.03;7.87;;;0.20;99.90;;;;;;4998452;28;20505;-79
2021/04/13 03:13:14;;;;;;;12.07;9.03;;;0.20;99.90;;;;;;5002428;28;20441;-78
2021/04/13 03:15:42;;;;;;;12.93;9.17;;;0.30;99.90;;;;;;5002203;28;20453;-79
2021/04/13 03:18:14;;;;;;;13.20;9.53;;;0.30;99.90;;;;;;5000694;28;20438;-79
2021/04/13 03:20:46;;;;;;;13.30;9.33;;;0.40;99.90;;;;;;5000904;28;20414;-78
2021/04/13 03:23:13;;;;;;;13.97;10.00;;;0.30;99.90;;;;;;5000845;28;20509;-79
2021/04/13 03:25:54;;;;;;;13.83;9.87;;;0.30;99.90;;;;;;5000053;28;20863;-78
2021/04/13 03:28:24;;;;;;;13.27;9.97;;;0.30;99.90;;;;;;5000616;28;20467;-79
2021/04/13 03:30:51;;;;;;;14.40;9.83;;;0.20;99.90;;;;;;5000620;28;20417;-78
2021/04/13 03:33:27;;;;;;;14.43;10.23;;;0.20;99.90;;;;;;5001839;28;20514;-79
2021/04/13 03:36:04;;;;;;;15.67;9.87;;;0.20;99.90;;;;;;4999683;28;20497;-79
2021/04/13 03:38:31;;;;;;;13.43;9.53;;;0.20;99.90;;;;;;5001907;28;20936;-79
2021/04/13 03:40:57;;;;;;;13.17;9.67;;;0.20;99.90;;;;;;5000834;28;20433;-79
2021/04/13 03:43:26;;;;;;;11.77;9.73;;;0.20;99.90;;;;;;5002245;28;20529;-78
2021/04/13 03:45:57;;;;;;;14.10;10.27;;;0.10;99.90;;;;;;5000364;28;20454;-79
2021/04/13 03:48:27;;;;;;;13.83;9.37;;;0.20;99.90;;;;;;4999152;28;20584;-78
2021/04/13 03:51:09;;;;;;;15.73;10.90;;;0.10;99.90;;;;;;5001596;28;20415;-78
2021/04/13 03:53:48;;;;;;;14.30;9.73;;;0.10;99.90;;;;;;5000547;28;20406;-78
2021/04/13 03:56:23;;;;;;;13.63;9.93;;;0.10;99.90;;;;;;4999529;28;20406;-78
2021/04/13 03:58:52;;;;;;;19.03;12.97;;;0.10;99.90;;;;;;5000235;28;20478;-78
2021/04/13 04:01:23;;;;;;;18.53;11.83;;;0.00;99.90;;;;;;5002969;28;20415;-79
2021/04/13 04:03:59;;;;;;;17.00;13.17;;;0.00;99.90;;;;;;5000675;28;20425;-79
2021/04/13 04:06:47;;;;;;;19.50;13.30;;;0.00;99.90;;;;;;4999364;28;20458;-78
2021/04/13 04:09:22;;;;;;;15.13;10.73;;;0.00;99.90;;;;;;5000883;28;20391;-80
2021/04/13 04:11:50;;;;;;;14.03;9.93;;;-0.10;99.90;;;;;;5000761;28;20464;-79
2021/04/13 04:14:21;;;;;;;17.53;10.63;;;0.00;99.90;;;;;;5001083;28;20768;-77
2021/04/13 04:16:47;;;;;;;32.90;22.57;;;-0.10;99.90;;;;;;4997250;28;20732;-77
2021/04/13 04:19:23;;;;;;;21.13;15.23;;;0.00;99.90;;;;;;4995691;28;20449;-77
2021/04/13 04:22:08;;;;;;;17.77;13.20;;;-0.10;99.90;;;;;;4996653;28;20441;-77
2021/04/13 04:24:42;;;;;;;21.10;14.00;;;0.00;99.90;;;;;;4995552;28;20410;-77
2021/04/13 04:27:40;;;;;;;19.80;13.27;;;0.00;99.90;;;;;;4995512;28;21018;-77
2021/04/13 04:30:29;;;;;;;22.03;16.37;;;0.10;99.90;;;;;;4994604;28;20411;-77
2021/04/13 04:32:57;;;;;;;22.73;16.30;;;0.00;99.90;;;;;;4996941;28;20490;-77
2021/04/13 04:35:40;;;;;;;25.03;16.73;;;0.00;99.90;;;;;;4995315;28;20422;-77
2021/04/13 04:38:23;;;;;;;20.67;14.40;;;0.00;99.90;;;;;;4996542;28;20434;-77
2021/04/13 04:40:49;;;;;;;21.70;14.77;;;0.00;99.90;;;;;;4995352;28;20921;-77
2021/04/13 04:43:17;;;;;;;21.90;13.20;;;0.00;99.90;;;;;;4996538;28;20450;-77
2021/04/13 04:45:43;;;;;;;27.13;16.23;;;0.00;99.90;;;;;;4996372;28;20196;-77
2021/04/13 04:48:29;;;;;;;34.30;20.03;;;0.00;99.90;;;;;;4995101;28;20438;-77
2021/04/13 04:51:13;;;;;;;35.70;21.30;;;0.00;99.90;;;;;;4996163;28;20580;-77
2021/04/13 04:53:41;;;;;;;16.60;12.43;;;0.00;99.90;;;;;;4996396;28;20395;-77
2021/04/13 04:56:09;;;;;;;17.37;12.63;;;0.00;99.90;;;;;;4996289;28;20921;-76
2021/04/13 04:58:35;;;;;;;18.40;11.40;;;0.00;99.90;;;;;;4995116;28;20504;-77
2021/04/13 05:01:01;;;;;;;15.93;12.17;;;-0.10;99.90;;;;;;4993981;28;20441;-77
2021/04/13 05:03:28;;;;;;;21.90;15.30;;;0.00;99.90;;;;;;4995112;28;20461;-77
2021/04/13 05:05:56;;;;;;;20.13;13.93;;;0.00;99.90;;;;;;4994965;28;20450;-77
2021/04/13 05:08:22;;;;;;;20.17;13.70;;;0.00;99.90;;;;;;4994959;28;20929;-77
2021/04/13 05:10:50;;;;;;;19.67;13.47;;;-0.10;99.90;;;;;;4993736;28;20438;-77
2021/04/13 05:13:16;;;;;;;26.93;17.80;;;0.00;99.90;;;;;;4995064;28;20182;-77
2021/04/13 05:15:42;;;;;;;18.33;13.53;;;0.00;99.90;;;;;;4993777;28;20415;-77
2021/04/13 05:18:08;;;;;;;22.23;14.73;;;0.00;99.90;;;;;;4994851;28;20439;-77
2021/04/13 05:20:33;;;;;;;22.03;14.43;;;-0.10;99.90;;;;;;5010015;28;20179;-77
2021/04/13 05:22:59;;;;;;;20.30;12.77;;;-0.20;99.90;;;;;;4993666;28;20180;-77
2021/04/13 05:25:24;;;;;;;18.17;12.93;;;-0.10;99.90;;;;;;4994522;28;20756;-77
2021/04/13 05:27:51;;;;;;;17.70;12.60;;;-0.10;99.90;;;;;;4993408;28;20203;-77
2021/04/13 05:30:18;;;;;;;19.27;12.83;;;-0.10;99.90;;;;;;4990846;28;20179;-77
2021/04/13 05:32:44;;;;;;;18.13;13.60;;;0.00;99.90;;;;;;4973622;28;20841;-76
2021/04/13 05:35:12;;;;;;;15.63;11.17;;;0.00;99.90;;;;;;4973043;28;20482;-77
2021/04/13 05:37:37;;;;;;;17.77;12.33;;;-0.10;99.90;;;;;;4973953;28;20670;-76
2021/04/13 05:40:07;;;;;;;18.43;12.70;;;0.00;99.90;;;;;;4974925;28;20407;-77
2021/04/13 05:42:35;;;;;;;22.00;15.83;;;0.00;99.90;;;;;;4975129;28;20185;-76
2021/04/13 05:45:02;;;;;;;19.90;13.60;;;0.00;99.90;;;;;;4974500;28;20419;-76
2021/04/13 05:47:31;;;;;;;21.03;15.80;;;0.00;99.90;;;;;;4977472;28;20534;-77
2021/04/13 05:49:57;;;;;;;21.23;14.23;;;0.00;99.90;;;;;;4975009;28;20462;-77
2021/04/13 05:52:23;;;;;;;20.93;13.33;;;0.00;99.90;;;;;;4974042;28;20412;-77
2021/04/13 05:54:49;;;;;;;22.87;14.50;;;0.10;99.90;;;;;;4974788;28;20802;-77
2021/04/13 05:57:20;;;;;;;22.47;14.33;;;0.00;99.90;;;;;;4951037;28;707723;-77
2021/04/13 05:59:52;;;;;;;31.27;19.80;;;0.10;99.90;;;;;;4974462;28;20608;-77
2021/04/13 06:02:18;;;;;;;27.47;18.60;;;0.20;99.90;;;;;;4974387;28;20975;-76
2021/04/13 06:04:44;;;;;;;24.60;17.17;;;0.20;99.90;;;;;;4990347;28;20440;-77
2021/04/13 06:07:10;;;;;;;30.73;20.47;;;0.30;99.90;;;;;;4975428;28;20216;-77
2021/04/13 06:09:35;;;;;;;24.30;16.33;;;0.30;99.90;;;;;;4975503;28;20306;-77
2021/04/13 06:12:02;;;;;;;20.20;12.87;;;0.30;99.90;;;;;;4975422;28;20259;-77
2021/04/13 06:14:29;;;;;;;149.13;101.03;;;0.40;99.90;;;;;;4975425;28;20184;-77
2021/04/13 06:16:54;;;;;;;45.00;31.80;;;0.50;99.90;;;;;;4975243;28;20593;-77
2021/04/13 06:19:20;;;;;;;53.37;33.70;;;0.40;99.90;;;;;;4974083;28;20510;-77
2021/04/13 06:21:46;;;;;;;33.97;24.33;;;0.50;99.90;;;;;;4974033;28;20640;-77
2021/04/13 06:24:12;;;;;;;29.63;21.53;;;0.60;99.90;;;;;;4975339;28;20282;-77
2021/04/13 06:26:39;;;;;;;34.40;23.50;;;0.60;99.90;;;;;;4973816;28;20216;-77
2021/04/13 06:29:05;;;;;;;34.83;21.40;;;0.60;99.90;;;;;;4973728;28;20423;-77
2021/04/13 06:31:30;;;;;;;31.07;19.00;;;0.70;99.90;;;;;;4974068;28;20423;-77
2021/04/13 06:33:56;;;;;;;14.43;10.97;;;0.80;99.90;;;;;;4975087;28;20578;-77
2021/04/13 06:36:25;;;;;;;18.47;11.33;;;0.80;99.90;;;;;;4974945;28;20544;-77
2021/04/13 06:38:52;;;;;;;15.27;11.57;;;0.80;99.90;;;;;;4974304;28;20211;-77
2021/04/13 06:41:27;;;;;;;26.30;15.67;;;0.80;99.90;;;;;;4973917;28;20416;-77
2021/04/13 06:44:20;;;;;;;26.80;15.83;;;0.90;99.90;;;;;;4974990;28;20876;-77
2021/04/13 06:47:05;;;;;;;23.13;14.50;;;1.00;99.90;;;;;;4974759;28;20873;-77
2021/04/13 06:50:06;;;;;;;21.03;14.20;;;0.90;99.90;;;;;;4974922;28;20384;-77
2021/04/13 06:53:16;;;;;;;47.83;31.43;;;1.00;99.90;;;;;;4975264;28;20398;-77
2021/04/13 06:56:19;;;;;;;16.53;11.77;;;1.20;99.90;;;;;;4969270;28;20439;-76
2021/04/13 06:59:22;;;;;;;15.17;11.57;;;1.20;99.90;;;;;;4975270;28;20450;-79
2021/04/13 07:01:54;;;;;;;14.07;11.23;;;1.30;99.90;;;;;;4977075;28;20443;-76
2021/04/13 07:04:29;;;;;;;27.23;16.60;;;1.30;99.90;;;;;;4974655;28;20403;-76
2021/04/13 07:07:03;;;;;;;22.00;12.67;;;1.30;99.90;;;;;;4975131;28;20802;-76
2021/04/13 07:09:38;;;;;;;18.77;14.30;;;1.40;99.90;;;;;;4973473;28;20415;-76
2021/04/13 07:12:07;;;;;;;13.97;10.77;;;1.50;99.90;;;;;;4974859;28;20404;-77
2021/04/13 07:14:39;;;;;;;19.43;13.47;;;1.50;99.90;;;;;;4974507;28;20418;-77
2021/04/13 07:17:31;;;;;;;15.07;10.30;;;1.50;99.90;;;;;;4974755;28;20514;-77
2021/04/13 07:20:02;;;;;;;13.47;9.73;;;1.60;99.90;;;;;;4974685;28;20408;-77
2021/04/13 07:22:49;;;;;;;15.07;10.90;;;1.70;99.90;;;;;;4974698;28;20473;-77
2021/04/13 07:25:22;;;;;;;13.67;10.97;;;1.90;99.90;;;;;;4974579;28;20411;-77
2021/04/13 07:27:57;;;;;;;19.07;14.60;;;2.10;99.90;;;;;;4974433;28;20470;-77
2021/04/13 07:30:49;;;;;;;14.23;10.53;;;2.30;99.90;;;;;;4973319;28;21055;-77
2021/04/13 07:33:30;;;;;;;11.83;8.50;;;2.70;99.90;;;;;;4974376;28;20415;-77
2021/04/13 07:36:01;;;;;;;11.83;10.03;;;3.50;99.90;;;;;;4976292;28;20412;-78
2021/04/13 07:38:31;;;;;;;21.43;14.83;;;3.50;99.90;;;;;;4976736;28;20531;-78
2021/04/13 07:41:45;;;;;;;13.30;10.07;;;4.00;99.90;;;;;;4976749;28;20416;-78
2021/04/13 07:44:17;;;;;;;13.40;8.87;;;4.50;99.90;;;;;;4933290;28;20427;-77
2021/04/13 07:47:00;;;;;;;21.03;14.10;;;5.20;99.90;;;;;;4978340;28;20490;-78
2021/04/13 07:49:49;;;;;;;15.63;10.27;;;5.50;99.90;;;;;;4978055;28;20181;-78
2021/04/13 07:52:51;;;;;;;10.90;8.80;;;4.60;99.90;;;;;;4978152;28;20177;-78
2021/04/13 07:55:19;;;;;;;10.27;8.73;;;3.90;99.90;;;;;;4979112;28;20172;-78
2021/04/13 07:58:03;;;;;;;9.93;8.53;;;3.40;99.90;;;;;;4980766;28;20217;-78
2021/04/13 08:00:40;;;;;;;13.10;9.27;;;3.10;99.90;;;;;;4982067;28;20161;-78
2021/04/13 08:03:19;;;;;;;19.50;14.60;;;3.40;99.90;;;;;;4980481;28;20184;-78
2021/04/13 08:05:54;;;;;;;10.80;8.30;;;4.20;99.90;;;;;;4981817;28;20195;-78
2021/04/13 08:08:39;;;;;;;11.53;9.83;;;4.90;99.90;;;;;;4979929;28;20526;-78
2021/04/13 08:11:18;;;;;;;8.93;7.73;;;4.60;99.90;;;;;;4980707;28;20165;-78
2021/04/13 08:13:46;;;;;;;8.93;7.63;;;4.30;99.90;;;;;;4980814;28;20227;-78
2021/04/13 08:16:38;;;;;;;8.83;7.80;;;3.80;99.90;;;;;;4980784;28;20207;-78
2021/04/13 08:19:32;;;;;;;8.80;7.27;;;3.80;99.90;;;;;;4978900;28;20169;-78
2021/04/13 08:22:13;;;;;;;9.13;7.20;;;3.90;99.90;;;;;;4994903;28;20600;-78
2021/04/13 08:24:52;;;;;;;8.40;6.93;;;3.80;99.90;;;;;;4976828;28;20181;-77
2021/04/13 08:27:48;;;;;;;7.83;6.40;;;3.80;99.90;;;;;;4977010;28;20217;-77
2021/04/13 08:30:41;;;;;;;8.57;6.97;;;3.80;99.90;;;;;;4982881;28;20212;-77
2021/04/13 08:33:07;;;;;;;7.63;6.03;;;3.70;99.90;;;;;;4979271;28;20153;-78
2021/04/13 08:35:42;;;;;;;8.63;7.00;;;3.70;99.90;;;;;;4979162;28;20172;-78
2021/04/13 08:38:45;;;;;;;8.03;7.23;;;3.70;99.90;;;;;;4980165;28;20196;-77
2021/04/13 08:41:17;;;;;;;7.00;6.23;;;5.00;99.90;;;;;;4978044;28;20208;-77
2021/04/13 08:44:20;;;;;;;8.70;6.33;;;5.20;99.90;;;;;;4980149;28;20177;-78
2021/04/13 08:47:18;;;;;;;6.43;5.70;;;5.20;99.90;;;;;;4980346;28;20327;-77
2021/04/13 08:49:59;;;;;;;5.50;5.00;;;4.80;99.90;;;;;;4978244;28;20697;-77
2021/04/13 08:52:42;;;;;;;6.67;5.97;;;4.40;99.90;;;;;;4978711;28;20158;-78
2021/04/13 08:55:15;;;;;;;8.43;6.40;;;4.90;99.90;;;;;;4978670;28;20185;-78
2021/04/13 08:57:47;;;;;;;7.83;6.63;;;4.70;99.90;;;;;;4977506;28;20214;-77
2021/04/13 09:00:45;;;;;;;9.73;8.67;;;4.30;99.90;;;;;;4978964;28;20659;-76
2021/04/13 09:03:14;;;;;;;7.57;4.93;;;4.20;99.90;;;;;;4978130;28;20158;-77
2021/04/13 09:05:41;;;;;;;6.60;5.50;;;5.30;99.90;;;;;;4978358;28;20702;-77
2021/04/13 09:08:30;;;;;;;7.83;5.50;;;5.20;99.90;;;;;;4977090;28;20278;-77
2021/04/13 09:11:10;;;;;;;7.43;6.40;;;5.60;99.90;;;;;;4978954;28;20167;-77
2021/04/13 09:13:40;;;;;;;11.00;8.60;;;6.30;99.90;;;;;;4977620;28;20174;-78
2021/04/13 09:16:05;;;;;;;34.57;23.93;;;6.80;99.90;;;;;;4979190;28;20235;-78
2021/04/13 09:18:47;;;;;;;9.67;6.77;;;6.20;99.90;;;;;;4978563;28;20204;-78
2021/04/13 09:21:27;;;;;;;21.13;15.33;;;5.60;99.90;;;;;;4979527;28;20672;-78
2021/04/13 09:24:42;;;;;;;83.83;49.07;;;5.20;99.90;;;;;;4977803;28;20172;-78
2021/04/13 09:27:23;;;;;;;9.77;7.07;;;4.80;99.90;;;;;;4970179;28;20228;-78
2021/04/13 09:30:29;;;;;;;6.20;5.47;;;4.50;99.90;;;;;;4979969;28;20176;-78
2021/04/13 09:33:12;;;;;;;5.63;4.87;;;4.00;99.90;;;;;;4973720;28;20188;-78
2021/04/13 09:35:50;;;;;;;5.60;5.10;;;3.90;99.90;;;;;;4976473;28;20198;-78
2021/04/13 09:38:18;;;;;;;5.07;4.57;;;3.70;99.90;;;;;;4976401;28;20216;-77
2021/04/13 09:41:06;;;;;;;7.13;5.00;;;3.80;99.90;;;;;;4976370;28;20209;-78
2021/04/13 09:43:57;;;;;;;7.27;5.47;;;4.00;99.90;;;;;;4978089;28;20666;-78
2021/04/13 09:46:46;;;;;;;8.23;5.90;;;4.20;99.90;;;;;;4978046;28;20209;-78
2021/04/13 09:49:43;;;;;;;6.90;5.23;;;4.50;99.90;;;;;;4978046;28;20189;-78
2021/04/13 09:52:24;;;;;;;5.10;4.60;;;5.50;99.90;;;;;;4978890;28;20542;-78
2021/04/13 09:55:04;;;;;;;4.77;4.20;;;6.90;99.90;;;;;;4980364;28;20492;-78
2021/04/13 09:57:44;;;;;;;5.83;4.60;;;7.00;99.90;;;;;;4980281;28;20213;-78
2021/04/13 10:00:13;;;;;;;6.97;5.20;;;6.60;99.90;;;;;;4979118;28;20224;-78
2021/04/13 10:03:05;;;;;;;8.70;5.27;;;6.10;99.90;;;;;;4980857;28;20316;-78
2021/04/13 10:05:36;;;;;;;5.13;4.63;;;5.30;99.90;;;;;;4979186;28;20201;-78
2021/04/13 10:08:07;;;;;;;5.97;4.97;;;4.10;99.90;;;;;;4980481;28;20654;-78
2021/04/13 10:10:56;;;;;;;6.83;5.37;;;3.50;99.90;;;;;;4979530;28;20168;-78
2021/04/13 10:13:56;;;;;;;8.63;6.23;;;3.00;99.90;;;;;;4980444;28;20704;-78
2021/04/13 10:16:59;;;;;;;7.27;6.53;;;2.50;99.90;;;;;;4980553;28;20690;-78
2021/04/13 10:19:52;;;;;;;5.70;4.97;;;2.20;99.90;;;;;;4977359;28;20185;-78
2021/04/13 10:22:58;;;;;;;6.10;5.07;;;2.00;99.90;;;;;;4978664;28;20185;-78
2021/04/13 10:25:30;;;;;;;10.00;5.57;;;1.80;99.90;;;;;;4921648;29;20189;-78
2021/04/13 10:28:13;;;;;;;9.57;6.97;;;1.90;99.90;;;;;;4938216;29;20455;-78
2021/04/13 10:31:00;;;;;;;9.90;7.40;;;2.00;99.90;;;;;;4955854;28;20507;-78
2021/04/13 10:33:47;;;;;;;8.27;6.73;;;2.20;99.90;;;;;;4977553;28;20161;-78
2021/04/13 10:36:43;;;;;;;6.77;6.03;;;2.60;99.90;;;;;;4977353;28;20732;-78
2021/04/13 10:39:27;;;;;;;9.07;6.87;;;3.10;99.90;;;;;;4977246;28;20412;-78
2021/04/13 10:42:20;;;;;;;7.53;6.43;;;3.90;99.90;;;;;;4976652;28;20419;-78
2021/04/13 10:44:51;;;;;;;6.57;5.63;;;5.20;99.90;;;;;;4979181;28;20181;-78
2021/04/13 10:47:36;;;;;;;7.00;6.30;;;6.20;99.90;;;;;;4980218;28;20307;-78
2021/04/13 10:50:32;;;;;;;5.97;4.80;;;6.70;99.90;;;;;;4983877;28;20150;-78
2021/04/13 10:53:34;;;;;;;5.23;4.73;;;6.80;99.90;;;;;;4983089;28;20232;-79
2021/04/13 10:56:18;;;;;;;7.77;6.00;;;6.80;99.90;;;;;;4983351;28;20247;-80
2021/04/13 10:58:47;;;;;;;5.90;4.70;;;6.20;99.90;;;;;;4982886;28;20215;-79
2021/04/13 11:01:25;;;;;;;5.93;4.30;;;5.60;99.90;;;;;;4984001;28;20238;-79
2021/04/13 11:04:18;;;;;;;6.17;5.23;;;5.10;99.90;;;;;;4983641;28;20168;-79
2021/04/13 11:06:53;;;;;;;5.53;4.47;;;4.60;99.90;;;;;;4982367;28;20210;-79
2021/04/13 11:09:18;;;;;;;6.33;4.87;;;4.20;99.90;;;;;;4983560;28;20195;-79
2021/04/13 11:12:03;;;;;;;5.47;4.93;;;4.10;99.90;;;;;;4982409;28;20545;-79
2021/04/13 11:14:45;;;;;;;6.10;5.50;;;4.10;99.90;;;;;;4982897;28;20156;-79
2021/04/13 11:17:30;;;;;;;5.90;5.30;;;4.00;99.90;;;;;;4981088;28;20588;-79
2021/04/13 11:20:20;;;;;;;7.13;6.00;;;3.60;99.90;;;;;;4981731;28;20205;-79
2021/04/13 11:23:04;;;;;;;7.67;5.97;;;3.50;99.90;;;;;;4979401;28;20170;-79
2021/04/13 11:26:03;;;;;;;10.30;6.37;;;3.40;99.90;;;;;;4979092;28;20179;-79
2021/04/13 11:28:35;;;;;;;6.47;5.53;;;3.50;99.90;;;;;;4979491;28;20198;-79
2021/04/13 11:31:30;;;;;;;8.67;6.43;;;3.50;99.90;;;;;;4979935;28;20212;-79
2021/04/13 11:34:15;;;;;;;7.00;6.10;;;3.50;99.90;;;;;;4985055;28;20204;-79
2021/04/13 11:37:14;;;;;;;8.93;6.93;;;3.50;99.90;;;;;;4983416;28;20180;-78
2021/04/13 11:39:41;;;;;;;8.97;5.80;;;3.60;99.90;;;;;;4983794;28;20162;-79
2021/04/13 11:42:26;;;;;;;7.77;5.53;;;3.80;99.90;;;;;;4983082;28;20236;-79
2021/04/13 11:45:07;;;;;;;5.90;5.30;;;3.90;99.90;;;;;;4989381;28;20243;-78
2021/04/13 11:47:43;;;;;;;6.23;5.33;;;4.40;99.90;;;;;;4990281;28;20579;-79
2021/04/13 11:50:30;;;;;;;5.83;5.23;;;4.40;99.90;;;;;;4987964;28;20187;-78
2021/04/13 11:53:13;;;;;;;5.70;4.93;;;4.40;99.90;;;;;;4985075;28;20246;-79
2021/04/13 11:55:47;;;;;;;7.17;5.07;;;5.40;99.90;;;;;;4985486;28;20304;-79
2021/04/13 11:58:20;;;;;;;6.57;5.03;;;6.70;99.90;;;;;;4985262;28;20219;-79
2021/04/13 12:01:07;;;;;;;5.63;4.50;;;7.70;99.90;;;;;;4984952;28;20182;-79
2021/04/13 12:03:36;;;;;;;4.57;4.13;;;7.50;99.90;;;;;;4974657;28;20616;-80
2021/04/13 12:06:12;;;;;;;4.07;3.63;;;7.10;99.90;;;;;;4984832;28;20699;-79
2021/04/13 12:08:44;;;;;;;4.93;3.80;;;6.70;99.90;;;;;;4986356;28;20254;-79
2021/04/13 12:11:43;;;;;;;4.83;4.30;;;6.60;99.90;;;;;;4987291;28;20640;-79
2021/04/13 12:14:36;;;;;;;5.70;4.30;;;7.10;99.90;;;;;;4986366;28;20177;-79
2021/04/13 12:17:06;;;;;;;8.03;4.80;;;8.10;99.90;;;;;;4987122;28;20227;-79
2021/04/13 12:19:32;;;;;;;3.93;3.60;;;8.60;99.90;;;;;;4982264;28;20203;-79
2021/04/13 12:22:00;;;;;;;3.20;2.90;;;8.60;99.90;;;;;;4984238;28;20219;-79
2021/04/13 12:24:38;;;;;;;4.43;2.63;;;8.80;98.10;;;;;;4985008;28;20196;-80
2021/04/13 12:27:42;;;;;;;4.03;3.63;;;9.70;95.40;;;;;;4985457;28;20233;-79
2021/04/13 12:30:29;;;;;;;3.00;2.70;;;10.70;92.00;;;;;;4985371;28;20195;-79
2021/04/13 12:32:56;;;;;;;2.60;2.40;;;10.80;90.60;;;;;;4982221;28;20215;-79
2021/04/13 12:35:53;;;;;;;3.30;2.50;;;9.70;84.50;;;;;;4982027;28;20204;-79
2021/04/13 12:38:44;;;;;;;3.77;2.80;;;8.60;85.20;;;;;;4981028;28;20234;-79
2021/04/13 12:41:23;;;;;;;5.37;3.70;;;7.90;84.20;;;;;;4983431;28;20643;-79
2021/04/13 12:44:13;;;;;;;4.30;3.90;;;7.50;96.10;;;;;;4982796;28;20156;-79
2021/04/13 12:46:40;;;;;;;4.47;3.10;;;6.90;98.40;;;;;;4983067;28;20204;-79
2021/04/13 12:49:29;;;;;;;4.93;3.97;;;6.00;99.90;;;;;;4989587;28;20243;-77
2021/04/13 12:52:04;;;;;;;5.73;4.60;;;5.60;99.90;;;;;;5006891;28;20163;-79
2021/04/13 12:54:43;;;;;;;3.83;3.53;;;5.20;99.90;;;;;;5001106;28;20211;-78
2021/04/13 12:57:18;;;;;;;3.73;3.27;;;5.30;99.90;;;;;;5005312;28;20221;-78
2021/04/13 12:59:44;;;;;;;4.80;3.70;;;5.50;99.90;;;;;;4998121;28;20210;-78
2021/04/13 13:02:37;;;;;;;3.97;3.53;;;5.80;99.90;;;;;;4989932;28;20176;-79
2021/04/13 13:05:16;;;;;;;4.63;3.90;;;6.20;99.90;;;;;;4979265;28;20180;-79
2021/04/13 13:07:50;;;;;;;3.53;3.03;;;6.40;99.90;;;;;;4978465;28;20208;-78
2021/04/13 13:10:16;;;;;;;4.13;3.83;;;6.40;99.90;;;;;;4979825;28;20608;-78
2021/04/13 13:12:41;;;;;;;5.07;3.20;;;6.30;99.90;;;;;;4979179;28;20179;-78
2021/04/13 13:15:11;;;;;;;3.23;2.73;;;7.10;99.90;;;;;;4979426;28;20258;-78
2021/04/13 13:17:41;;;;;;;3.93;3.27;;;8.80;99.90;;;;;;4979840;28;20210;-79
2021/04/13 13:20:11;;;;;;;3.10;2.77;;;10.30;93.70;;;;;;4978881;28;20183;-80
2021/04/13 13:22:47;;;;;;;3.37;2.90;;;10.90;91.00;;;;;;4979144;28;20418;-79
2021/04/13 13:25:17;;;;;;;3.80;2.87;;;11.90;92.70;;;;;;4979310;28;20183;-79
2021/04/13 13:27:42;;;;;;;4.03;3.10;;;12.00;79.10;;;;;;4984949;28;20298;-79
2021/04/13 13:30:12;;;;;;;5.17;3.27;;;12.00;83.70;;;;;;4999397;28;20588;-79
2021/04/13 13:32:38;;;;;;;3.93;3.33;;;12.40;87.20;;;;;;4998444;28;20579;-79
2021/04/13 13:35:09;;;;;;;3.03;2.73;;;12.30;82.60;;;;;;5000417;28;20182;-79
2021/04/13 13:37:42;;;;;;;4.47;3.03;;;12.40;78.10;;;;;;4999903;28;20199;-79
2021/04/13 13:40:22;;;;;;;3.00;2.80;;;12.20;86.40;;;;;;4998834;28;20180;-79